sensor_id;sensor_type;location;lat;lon;timestamp;P1;durP1;ratioP1;P2;durP2;ratioP2
41436;SDS011;27178;49.460;10.850;2024-03-29T00:01:07;1.85;;;1.45;;
41436;SDS011;27178;49.460;10.850;2024-03-29T00:03:34;1.60;;;1.20;;
41436;SDS011;27178;49.460;10.850;2024-03-29T00:06:00;1.58;;;1.48;;
41436;SDS011;27178;49.460;10.850;2024-03-29T00:08:27;1.40;;;1.30;;
41436;SDS011;27178;49.460;10.850;2024-03-29T00:10:53;1.42;;;1.23;;
41436;SDS011;27178;49.460;10.850;2024-03-29T00:13:21;1.30;;;1.20;;
41436;SDS011;27178;49.460;10.850;2024-03-29T00:15:47;2.10;;;1.35;;
41436;SDS011;27178;49.460;10.850;2024-03-29T00:18:14;2.83;;;1.30;;
41436;SDS011;27178;49.460;10.850;2024-03-29T00:20:40;1.65;;;1.55;;
41436;SDS011;27178;49.460;10.850;2024-03-29T00:23:06;1.30;;;1.20;;
41436;SDS011;27178;49.460;10.850;2024-03-29T00:25:32;1.38;;;1.27;;
41436;SDS011;27178;49.460;10.850;2024-03-29T00:27:59;1.30;;;1.20;;
41436;SDS011;27178;49.460;10.850;2024-03-29T00:30:27;2.08;;;1.40;;
41436;SDS011;27178;49.460;10.850;2024-03-29T00:32:54;1.48;;;1.27;;
41436;SDS011;27178;49.460;10.850;2024-03-29T00:35:20;1.90;;;1.35;;
41436;SDS011;27178;49.460;10.850;2024-03-29T00:37:46;2.17;;;1.60;;
41436;SDS011;27178;49.460;10.850;2024-03-29T00:40:13;1.83;;;1.73;;
41436;SDS011;27178;49.460;10.850;2024-03-29T00:42:39;2.17;;;1.67;;
41436;SDS011;27178;49.460;10.850;2024-03-29T00:45:06;1.55;;;1.42;;
41436;SDS011;27178;49.460;10.850;2024-03-29T00:47:34;2.70;;;1.60;;
41436;SDS011;27178;49.460;10.850;2024-03-29T00:50:01;2.20;;;1.85;;
41436;SDS011;27178;49.460;10.850;2024-03-29T00:52:27;2.15;;;1.23;;
41436;SDS011;27178;49.460;10.850;2024-03-29T00:54:54;1.50;;;1.40;;
41436;SDS011;27178;49.460;10.850;2024-03-29T00:57:20;1.50;;;1.30;;
41436;SDS011;27178;49.460;10.850;2024-03-29T00:59:46;1.55;;;1.45;;
41436;SDS011;27178;49.460;10.850;2024-03-29T01:02:13;1.88;;;1.30;;
41436;SDS011;27178;49.460;10.850;2024-03-29T01:04:41;1.60;;;1.27;;
41436;SDS011;27178;49.460;10.850;2024-03-29T01:07:07;1.30;;;1.20;;
41436;SDS011;27178;49.460;10.850;2024-03-29T01:09:33;1.27;;;1.17;;
41436;SDS011;27178;49.460;10.850;2024-03-29T01:12:00;2.53;;;1.35;;
41436;SDS011;27178;49.460;10.850;2024-03-29T01:14:26;1.80;;;1.40;;
41436;SDS011;27178;49.460;10.850;2024-03-29T01:16:53;1.40;;;1.30;;
41436;SDS011;27178;49.460;10.850;2024-03-29T01:19:19;1.50;;;1.38;;
41436;SDS011;27178;49.460;10.850;2024-03-29T01:21:47;1.80;;;1.65;;
41436;SDS011;27178;49.460;10.850;2024-03-29T01:24:13;2.00;;;1.73;;
41436;SDS011;27178;49.460;10.850;2024-03-29T01:26:39;1.85;;;1.50;;
41436;SDS011;27178;49.460;10.850;2024-03-29T01:29:06;1.67;;;1.45;;
41436;SDS011;27178;49.460;10.850;2024-03-29T01:31:32;1.10;;;1.10;;
41436;SDS011;27178;49.460;10.850;2024-03-29T01:33:59;1.65;;;1.38;;
41436;SDS011;27178;49.460;10.850;2024-03-29T01:36:25;1.30;;;1.20;;
41436;SDS011;27178;49.460;10.850;2024-03-29T01:38:53;1.75;;;1.50;;
41436;SDS011;27178;49.460;10.850;2024-03-29T01:41:20;1.38;;;1.27;;
41436;SDS011;27178;49.460;10.850;2024-03-29T01:43:46;1.73;;;1.20;;
41436;SDS011;27178;49.460;10.850;2024-03-29T01:46:13;2.03;;;1.70;;
41436;SDS011;27178;49.460;10.850;2024-03-29T01:48:41;2.00;;;1.33;;
41436;SDS011;27178;49.460;10.850;2024-03-29T01:51:09;2.10;;;1.50;;
41436;SDS011;27178;49.460;10.850;2024-03-29T01:53:38;1.63;;;1.50;;
41436;SDS011;27178;49.460;10.850;2024-03-29T01:56:07;1.45;;;1.30;;
41436;SDS011;27178;49.460;10.850;2024-03-29T01:58:36;1.45;;;1.35;;
41436;SDS011;27178;49.460;10.850;2024-03-29T02:01:03;1.17;;;1.10;;
41436;SDS011;27178;49.460;10.850;2024-03-29T02:03:31;1.42;;;1.33;;
41436;SDS011;27178;49.460;10.850;2024-03-29T02:05:59;0.98;;;0.93;;
41436;SDS011;27178;49.460;10.850;2024-03-29T02:08:27;1.10;;;1.10;;
41436;SDS011;27178;49.460;10.850;2024-03-29T02:10:55;1.10;;;1.00;;
41436;SDS011;27178;49.460;10.850;2024-03-29T02:13:26;1.40;;;1.30;;
41436;SDS011;27178;49.460;10.850;2024-03-29T02:15:53;1.87;;;1.23;;
41436;SDS011;27178;49.460;10.850;2024-03-29T02:18:21;1.35;;;1.25;;
41436;SDS011;27178;49.460;10.850;2024-03-29T02:20:48;2.13;;;1.33;;
41436;SDS011;27178;49.460;10.850;2024-03-29T02:23:18;2.83;;;1.33;;
41436;SDS011;27178;49.460;10.850;2024-03-29T02:25:54;3.50;;;1.33;;
41436;SDS011;27178;49.460;10.850;2024-03-29T02:28:21;1.05;;;1.02;;
41436;SDS011;27178;49.460;10.850;2024-03-29T02:30:49;1.40;;;1.20;;
41436;SDS011;27178;49.460;10.850;2024-03-29T02:33:17;1.10;;;1.00;;
41436;SDS011;27178;49.460;10.850;2024-03-29T02:35:44;1.52;;;1.42;;
41436;SDS011;27178;49.460;10.850;2024-03-29T02:38:11;1.38;;;1.27;;
41436;SDS011;27178;49.460;10.850;2024-03-29T02:40:39;1.40;;;1.10;;
41436;SDS011;27178;49.460;10.850;2024-03-29T02:43:07;1.27;;;1.10;;
41436;SDS011;27178;49.460;10.850;2024-03-29T02:45:34;3.50;;;1.10;;
41436;SDS011;27178;49.460;10.850;2024-03-29T02:48:01;0.88;;;0.88;;
41436;SDS011;27178;49.460;10.850;2024-03-29T02:50:28;1.10;;;1.00;;
41436;SDS011;27178;49.460;10.850;2024-03-29T02:52:55;1.70;;;1.20;;
41436;SDS011;27178;49.460;10.850;2024-03-29T02:55:22;1.10;;;1.00;;
41436;SDS011;27178;49.460;10.850;2024-03-29T02:57:49;1.15;;;1.05;;
41436;SDS011;27178;49.460;10.850;2024-03-29T03:00:18;2.10;;;1.60;;
41436;SDS011;27178;49.460;10.850;2024-03-29T03:02:44;1.05;;;0.90;;
41436;SDS011;27178;49.460;10.850;2024-03-29T03:05:11;1.63;;;1.20;;
41436;SDS011;27178;49.460;10.850;2024-03-29T03:07:38;1.83;;;1.20;;
41436;SDS011;27178;49.460;10.850;2024-03-29T03:10:24;1.20;;;1.10;;
41436;SDS011;27178;49.460;10.850;2024-03-29T03:13:08;0.90;;;0.88;;
41436;SDS011;27178;49.460;10.850;2024-03-29T03:15:37;1.55;;;1.10;;
41436;SDS011;27178;49.460;10.850;2024-03-29T03:18:04;2.80;;;1.17;;
41436;SDS011;27178;49.460;10.850;2024-03-29T03:20:32;1.20;;;1.10;;
41436;SDS011;27178;49.460;10.850;2024-03-29T03:22:58;1.33;;;1.23;;
41436;SDS011;27178;49.460;10.850;2024-03-29T03:25:26;1.10;;;1.00;;
41436;SDS011;27178;49.460;10.850;2024-03-29T03:27:53;1.90;;;1.27;;
41436;SDS011;27178;49.460;10.850;2024-03-29T03:30:20;0.98;;;0.98;;
41436;SDS011;27178;49.460;10.850;2024-03-29T03:32:49;1.20;;;1.10;;
41436;SDS011;27178;49.460;10.850;2024-03-29T03:35:16;0.73;;;0.73;;
41436;SDS011;27178;49.460;10.850;2024-03-29T03:37:42;0.80;;;0.80;;
41436;SDS011;27178;49.460;10.850;2024-03-29T03:40:10;2.17;;;1.10;;
41436;SDS011;27178;49.460;10.850;2024-03-29T03:42:36;2.28;;;1.02;;
41436;SDS011;27178;49.460;10.850;2024-03-29T03:45:04;0.90;;;0.90;;
41436;SDS011;27178;49.460;10.850;2024-03-29T03:47:31;1.07;;;1.00;;
41436;SDS011;27178;49.460;10.850;2024-03-29T03:49:59;1.15;;;1.05;;
41436;SDS011;27178;49.460;10.850;2024-03-29T03:52:26;1.27;;;1.05;;
41436;SDS011;27178;49.460;10.850;2024-03-29T03:54:53;0.90;;;0.90;;
41436;SDS011;27178;49.460;10.850;2024-03-29T03:57:20;1.20;;;0.80;;
41436;SDS011;27178;49.460;10.850;2024-03-29T03:59:48;1.63;;;0.90;;
41436;SDS011;27178;49.460;10.850;2024-03-29T04:02:15;1.45;;;0.90;;
41436;SDS011;27178;49.460;10.850;2024-03-29T04:04:42;0.82;;;0.70;;
41436;SDS011;27178;49.460;10.850;2024-03-29T04:07:13;0.75;;;0.75;;
41436;SDS011;27178;49.460;10.850;2024-03-29T04:09:40;0.80;;;0.70;;
41436;SDS011;27178;49.460;10.850;2024-03-29T04:12:07;1.13;;;0.80;;
41436;SDS011;27178;49.460;10.850;2024-03-29T04:14:34;1.00;;;1.00;;
41436;SDS011;27178;49.460;10.850;2024-03-29T04:17:00;0.77;;;0.77;;
41436;SDS011;27178;49.460;10.850;2024-03-29T04:19:28;0.70;;;0.70;;
41436;SDS011;27178;49.460;10.850;2024-03-29T04:21:54;1.00;;;0.93;;
41436;SDS011;27178;49.460;10.850;2024-03-29T04:24:23;1.13;;;0.77;;
41436;SDS011;27178;49.460;10.850;2024-03-29T04:26:49;0.90;;;0.90;;
41436;SDS011;27178;49.460;10.850;2024-03-29T04:29:16;0.80;;;0.80;;
41436;SDS011;27178;49.460;10.850;2024-03-29T04:31:44;0.80;;;0.75;;
41436;SDS011;27178;49.460;10.850;2024-03-29T04:34:11;0.93;;;0.80;;
41436;SDS011;27178;49.460;10.850;2024-03-29T04:36:39;0.75;;;0.75;;
41436;SDS011;27178;49.460;10.850;2024-03-29T04:39:06;0.60;;;0.60;;
41436;SDS011;27178;49.460;10.850;2024-03-29T04:41:35;1.77;;;0.60;;
41436;SDS011;27178;49.460;10.850;2024-03-29T04:44:02;0.82;;;0.82;;
41436;SDS011;27178;49.460;10.850;2024-03-29T04:46:30;0.63;;;0.63;;
41436;SDS011;27178;49.460;10.850;2024-03-29T04:48:57;1.70;;;0.93;;
41436;SDS011;27178;49.460;10.850;2024-03-29T04:51:25;0.63;;;0.63;;
41436;SDS011;27178;49.460;10.850;2024-03-29T04:53:52;0.93;;;0.75;;
41436;SDS011;27178;49.460;10.850;2024-03-29T04:56:19;1.27;;;0.95;;
41436;SDS011;27178;49.460;10.850;2024-03-29T04:58:48;0.80;;;0.68;;
41436;SDS011;27178;49.460;10.850;2024-03-29T05:01:15;0.80;;;0.80;;
41436;SDS011;27178;49.460;10.850;2024-03-29T05:03:43;0.68;;;0.60;;
41436;SDS011;27178;49.460;10.850;2024-03-29T05:06:10;0.80;;;0.73;;
41436;SDS011;27178;49.460;10.850;2024-03-29T05:08:37;0.75;;;0.57;;
41436;SDS011;27178;49.460;10.850;2024-03-29T05:11:05;0.80;;;0.80;;
41436;SDS011;27178;49.460;10.850;2024-03-29T05:13:33;0.45;;;0.45;;
41436;SDS011;27178;49.460;10.850;2024-03-29T05:16:01;0.47;;;0.47;;
41436;SDS011;27178;49.460;10.850;2024-03-29T05:18:29;0.60;;;0.60;;
41436;SDS011;27178;49.460;10.850;2024-03-29T05:20:56;1.40;;;0.88;;
41436;SDS011;27178;49.460;10.850;2024-03-29T05:23:24;0.60;;;0.60;;
41436;SDS011;27178;49.460;10.850;2024-03-29T05:25:51;0.45;;;0.43;;
41436;SDS011;27178;49.460;10.850;2024-03-29T05:28:19;0.50;;;0.50;;
41436;SDS011;27178;49.460;10.850;2024-03-29T05:30:46;0.50;;;0.50;;
41436;SDS011;27178;49.460;10.850;2024-03-29T05:33:15;0.50;;;0.50;;
41436;SDS011;27178;49.460;10.850;2024-03-29T05:35:42;0.88;;;0.70;;
41436;SDS011;27178;49.460;10.850;2024-03-29T05:38:09;0.40;;;0.40;;
41436;SDS011;27178;49.460;10.850;2024-03-29T05:40:37;0.50;;;0.50;;
41436;SDS011;27178;49.460;10.850;2024-03-29T05:43:04;0.80;;;0.50;;
41436;SDS011;27178;49.460;10.850;2024-03-29T05:45:32;0.63;;;0.60;;
41436;SDS011;27178;49.460;10.850;2024-03-29T05:47:59;0.63;;;0.63;;
41436;SDS011;27178;49.460;10.850;2024-03-29T05:50:28;0.70;;;0.70;;
41436;SDS011;27178;49.460;10.850;2024-03-29T05:52:55;0.60;;;0.60;;
41436;SDS011;27178;49.460;10.850;2024-03-29T05:55:24;0.75;;;0.50;;
41436;SDS011;27178;49.460;10.850;2024-03-29T05:57:52;0.70;;;0.70;;
41436;SDS011;27178;49.460;10.850;2024-03-29T06:00:20;0.47;;;0.47;;
41436;SDS011;27178;49.460;10.850;2024-03-29T06:02:47;0.50;;;0.50;;
41436;SDS011;27178;49.460;10.850;2024-03-29T06:05:14;0.75;;;0.65;;
41436;SDS011;27178;49.460;10.850;2024-03-29T06:07:43;0.45;;;0.45;;
41436;SDS011;27178;49.460;10.850;2024-03-29T06:10:10;1.05;;;0.63;;
41436;SDS011;27178;49.460;10.850;2024-03-29T06:12:39;0.60;;;0.60;;
41436;SDS011;27178;49.460;10.850;2024-03-29T06:15:07;0.60;;;0.60;;
41436;SDS011;27178;49.460;10.850;2024-03-29T06:17:52;1.13;;;1.05;;
41436;SDS011;27178;49.460;10.850;2024-03-29T06:20:19;0.60;;;0.60;;
41436;SDS011;27178;49.460;10.850;2024-03-29T06:22:48;0.52;;;0.52;;
41436;SDS011;27178;49.460;10.850;2024-03-29T06:25:15;0.70;;;0.70;;
41436;SDS011;27178;49.460;10.850;2024-03-29T06:27:43;0.50;;;0.50;;
41436;SDS011;27178;49.460;10.850;2024-03-29T06:30:13;0.90;;;0.90;;
41436;SDS011;27178;49.460;10.850;2024-03-29T06:32:41;0.55;;;0.50;;
41436;SDS011;27178;49.460;10.850;2024-03-29T06:35:10;0.52;;;0.52;;
41436;SDS011;27178;49.460;10.850;2024-03-29T06:37:38;0.55;;;0.55;;
41436;SDS011;27178;49.460;10.850;2024-03-29T06:40:08;0.60;;;0.60;;
41436;SDS011;27178;49.460;10.850;2024-03-29T06:42:36;0.60;;;0.60;;
41436;SDS011;27178;49.460;10.850;2024-03-29T06:45:03;0.55;;;0.55;;
41436;SDS011;27178;49.460;10.850;2024-03-29T06:47:32;2.90;;;0.60;;
41436;SDS011;27178;49.460;10.850;2024-03-29T06:49:58;0.50;;;0.50;;
41436;SDS011;27178;49.460;10.850;2024-03-29T06:52:26;0.40;;;0.38;;
41436;SDS011;27178;49.460;10.850;2024-03-29T06:54:53;0.85;;;0.85;;
41436;SDS011;27178;49.460;10.850;2024-03-29T06:57:21;0.50;;;0.50;;
41436;SDS011;27178;49.460;10.850;2024-03-29T06:59:51;0.57;;;0.57;;
41436;SDS011;27178;49.460;10.850;2024-03-29T07:02:19;0.57;;;0.57;;
41436;SDS011;27178;49.460;10.850;2024-03-29T07:04:46;0.70;;;0.70;;
41436;SDS011;27178;49.460;10.850;2024-03-29T07:07:13;0.50;;;0.50;;
41436;SDS011;27178;49.460;10.850;2024-03-29T07:09:40;0.57;;;0.57;;
41436;SDS011;27178;49.460;10.850;2024-03-29T07:12:08;0.40;;;0.40;;
41436;SDS011;27178;49.460;10.850;2024-03-29T07:14:36;2.40;;;0.70;;
41436;SDS011;27178;49.460;10.850;2024-03-29T07:17:04;0.60;;;0.60;;
41436;SDS011;27178;49.460;10.850;2024-03-29T07:19:32;0.65;;;0.52;;
41436;SDS011;27178;49.460;10.850;2024-03-29T07:21:59;0.70;;;0.70;;
41436;SDS011;27178;49.460;10.850;2024-03-29T07:24:26;0.60;;;0.60;;
41436;SDS011;27178;49.460;10.850;2024-03-29T07:26:54;1.17;;;0.50;;
41436;SDS011;27178;49.460;10.850;2024-03-29T07:29:21;0.50;;;0.50;;
41436;SDS011;27178;49.460;10.850;2024-03-29T07:32:08;0.70;;;0.70;;
41436;SDS011;27178;49.460;10.850;2024-03-29T07:34:35;0.40;;;0.40;;
41436;SDS011;27178;49.460;10.850;2024-03-29T07:37:04;1.17;;;0.82;;
41436;SDS011;27178;49.460;10.850;2024-03-29T07:39:32;0.55;;;0.55;;
41436;SDS011;27178;49.460;10.850;2024-03-29T07:41:59;0.50;;;0.50;;
41436;SDS011;27178;49.460;10.850;2024-03-29T07:44:26;0.90;;;0.70;;
41436;SDS011;27178;49.460;10.850;2024-03-29T07:46:53;1.70;;;1.20;;
41436;SDS011;27178;49.460;10.850;2024-03-29T07:49:22;1.00;;;0.90;;
41436;SDS011;27178;49.460;10.850;2024-03-29T07:51:49;1.75;;;1.13;;
41436;SDS011;27178;49.460;10.850;2024-03-29T07:54:17;1.02;;;0.90;;
41436;SDS011;27178;49.460;10.850;2024-03-29T07:56:44;0.70;;;0.70;;
41436;SDS011;27178;49.460;10.850;2024-03-29T07:59:11;0.80;;;0.80;;
41436;SDS011;27178;49.460;10.850;2024-03-29T08:01:39;0.70;;;0.70;;
41436;SDS011;27178;49.460;10.850;2024-03-29T08:04:08;0.50;;;0.50;;
41436;SDS011;27178;49.460;10.850;2024-03-29T08:06:37;1.08;;;1.00;;
41436;SDS011;27178;49.460;10.850;2024-03-29T08:09:04;0.90;;;0.90;;
41436;SDS011;27178;49.460;10.850;2024-03-29T08:11:32;1.60;;;1.20;;
41436;SDS011;27178;49.460;10.850;2024-03-29T08:13:59;1.08;;;0.70;;
41436;SDS011;27178;49.460;10.850;2024-03-29T08:16:26;0.70;;;0.70;;
41436;SDS011;27178;49.460;10.850;2024-03-29T08:18:54;0.95;;;0.50;;
41436;SDS011;27178;49.460;10.850;2024-03-29T08:21:21;0.57;;;0.57;;
41436;SDS011;27178;49.460;10.850;2024-03-29T08:23:50;1.05;;;0.95;;
41436;SDS011;27178;49.460;10.850;2024-03-29T08:26:18;0.50;;;0.50;;
41436;SDS011;27178;49.460;10.850;2024-03-29T08:28:45;0.80;;;0.38;;
41436;SDS011;27178;49.460;10.850;2024-03-29T08:31:12;0.55;;;0.55;;
41436;SDS011;27178;49.460;10.850;2024-03-29T08:33:40;0.75;;;0.75;;
41436;SDS011;27178;49.460;10.850;2024-03-29T08:36:08;0.70;;;0.70;;
41436;SDS011;27178;49.460;10.850;2024-03-29T08:38:36;1.17;;;0.55;;
41436;SDS011;27178;49.460;10.850;2024-03-29T08:41:08;3.03;;;0.60;;
41436;SDS011;27178;49.460;10.850;2024-03-29T08:43:35;0.73;;;0.60;;
41436;SDS011;27178;49.460;10.850;2024-03-29T08:46:03;0.85;;;0.80;;
41436;SDS011;27178;49.460;10.850;2024-03-29T08:48:30;0.60;;;0.60;;
41436;SDS011;27178;49.460;10.850;2024-03-29T08:50:57;1.48;;;1.35;;
41436;SDS011;27178;49.460;10.850;2024-03-29T08:53:24;3.40;;;3.10;;
41436;SDS011;27178;49.460;10.850;2024-03-29T08:55:53;2.28;;;2.00;;
41436;SDS011;27178;49.460;10.850;2024-03-29T08:58:22;1.65;;;1.55;;
41436;SDS011;27178;49.460;10.850;2024-03-29T09:00:52;1.30;;;1.20;;
41436;SDS011;27178;49.460;10.850;2024-03-29T09:03:20;0.68;;;0.68;;
41436;SDS011;27178;49.460;10.850;2024-03-29T09:05:48;0.73;;;0.73;;
41436;SDS011;27178;49.460;10.850;2024-03-29T09:08:15;1.65;;;1.20;;
41436;SDS011;27178;49.460;10.850;2024-03-29T09:10:43;1.02;;;0.93;;
41436;SDS011;27178;49.460;10.850;2024-03-29T09:13:11;0.95;;;0.90;;
41436;SDS011;27178;49.460;10.850;2024-03-29T09:15:39;1.25;;;0.88;;
41436;SDS011;27178;49.460;10.850;2024-03-29T09:18:07;3.85;;;1.33;;
41436;SDS011;27178;49.460;10.850;2024-03-29T09:20:43;1.55;;;1.02;;
41436;SDS011;27178;49.460;10.850;2024-03-29T09:23:10;2.22;;;2.03;;
41436;SDS011;27178;49.460;10.850;2024-03-29T09:25:42;6.80;;;3.22;;
41436;SDS011;27178;49.460;10.850;2024-03-29T09:28:10;3.22;;;2.10;;
41436;SDS011;27178;49.460;10.850;2024-03-29T09:30:37;3.00;;;2.13;;
41436;SDS011;27178;49.460;10.850;2024-03-29T09:33:06;2.35;;;1.90;;
41436;SDS011;27178;49.460;10.850;2024-03-29T09:35:34;2.10;;;1.90;;
41436;SDS011;27178;49.460;10.850;2024-03-29T09:38:02;2.15;;;1.42;;
41436;SDS011;27178;49.460;10.850;2024-03-29T09:40:30;2.00;;;1.52;;
41436;SDS011;27178;49.460;10.850;2024-03-29T09:42:59;1.60;;;1.50;;
41436;SDS011;27178;49.460;10.850;2024-03-29T09:45:30;2.00;;;1.80;;
41436;SDS011;27178;49.460;10.850;2024-03-29T09:48:01;1.70;;;1.20;;
41436;SDS011;27178;49.460;10.850;2024-03-29T09:50:31;2.40;;;1.60;;
41436;SDS011;27178;49.460;10.850;2024-03-29T09:52:58;2.03;;;1.50;;
41436;SDS011;27178;49.460;10.850;2024-03-29T09:55:26;5.88;;;1.60;;
41436;SDS011;27178;49.460;10.850;2024-03-29T09:57:54;1.50;;;1.40;;
41436;SDS011;27178;49.460;10.850;2024-03-29T10:00:22;2.50;;;2.25;;
41436;SDS011;27178;49.460;10.850;2024-03-29T10:02:50;4.07;;;2.63;;
41436;SDS011;27178;49.460;10.850;2024-03-29T10:05:23;2.28;;;2.08;;
41436;SDS011;27178;49.460;10.850;2024-03-29T10:07:52;3.33;;;2.50;;
41436;SDS011;27178;49.460;10.850;2024-03-29T10:10:20;1.88;;;1.50;;
41436;SDS011;27178;49.460;10.850;2024-03-29T10:12:47;1.77;;;1.60;;
41436;SDS011;27178;49.460;10.850;2024-03-29T10:15:14;1.38;;;1.27;;
41436;SDS011;27178;49.460;10.850;2024-03-29T10:17:47;1.80;;;1.70;;
41436;SDS011;27178;49.460;10.850;2024-03-29T10:20:15;2.10;;;1.90;;
41436;SDS011;27178;49.460;10.850;2024-03-29T10:22:45;1.95;;;1.83;;
41436;SDS011;27178;49.460;10.850;2024-03-29T10:25:13;3.42;;;3.13;;
41436;SDS011;27178;49.460;10.850;2024-03-29T10:27:40;3.53;;;3.22;;
41436;SDS011;27178;49.460;10.850;2024-03-29T10:30:08;6.20;;;3.30;;
41436;SDS011;27178;49.460;10.850;2024-03-29T10:32:37;5.03;;;4.50;;
41436;SDS011;27178;49.460;10.850;2024-03-29T10:35:05;4.70;;;4.15;;
41436;SDS011;27178;49.460;10.850;2024-03-29T10:37:35;4.90;;;4.32;;
41436;SDS011;27178;49.460;10.850;2024-03-29T10:40:07;5.05;;;4.30;;
41436;SDS011;27178;49.460;10.850;2024-03-29T10:42:36;3.97;;;3.20;;
41436;SDS011;27178;49.460;10.850;2024-03-29T10:45:05;2.95;;;2.65;;
41436;SDS011;27178;49.460;10.850;2024-03-29T10:47:34;3.97;;;3.67;;
41436;SDS011;27178;49.460;10.850;2024-03-29T10:50:01;3.70;;;3.40;;
41436;SDS011;27178;49.460;10.850;2024-03-29T10:52:30;2.97;;;2.72;;
41436;SDS011;27178;49.460;10.850;2024-03-29T10:54:57;9.35;;;7.85;;
41436;SDS011;27178;49.460;10.850;2024-03-29T10:57:26;10.32;;;9.27;;
41436;SDS011;27178;49.460;10.850;2024-03-29T10:59:58;7.55;;;6.75;;
41436;SDS011;27178;49.460;10.850;2024-03-29T11:02:35;6.07;;;5.47;;
41436;SDS011;27178;49.460;10.850;2024-03-29T11:05:11;5.03;;;4.55;;
41436;SDS011;27178;49.460;10.850;2024-03-29T11:07:42;4.00;;;3.70;;
41436;SDS011;27178;49.460;10.850;2024-03-29T11:10:13;4.18;;;3.78;;
41436;SDS011;27178;49.460;10.850;2024-03-29T11:12:45;3.83;;;3.33;;
41436;SDS011;27178;49.460;10.850;2024-03-29T11:15:22;4.22;;;3.83;;
41436;SDS011;27178;49.460;10.850;2024-03-29T11:17:55;4.93;;;4.47;;
41436;SDS011;27178;49.460;10.850;2024-03-29T11:20:24;4.43;;;4.03;;
41436;SDS011;27178;49.460;10.850;2024-03-29T11:23:00;4.40;;;4.00;;
41436;SDS011;27178;49.460;10.850;2024-03-29T11:25:38;4.20;;;3.80;;
41436;SDS011;27178;49.460;10.850;2024-03-29T11:28:08;3.50;;;3.20;;
41436;SDS011;27178;49.460;10.850;2024-03-29T11:30:42;2.90;;;2.70;;
41436;SDS011;27178;49.460;10.850;2024-03-29T11:33:27;2.45;;;2.22;;
41436;SDS011;27178;49.460;10.850;2024-03-29T11:35:59;2.22;;;2.00;;
41436;SDS011;27178;49.460;10.850;2024-03-29T11:38:31;2.78;;;2.50;;
41436;SDS011;27178;49.460;10.850;2024-03-29T11:41:02;2.45;;;2.10;;
41436;SDS011;27178;49.460;10.850;2024-03-29T11:43:32;3.08;;;2.78;;
41436;SDS011;27178;49.460;10.850;2024-03-29T11:46:00;4.75;;;3.65;;
41436;SDS011;27178;49.460;10.850;2024-03-29T11:48:29;4.60;;;3.85;;
41436;SDS011;27178;49.460;10.850;2024-03-29T11:50:57;3.42;;;2.95;;
41436;SDS011;27178;49.460;10.850;2024-03-29T11:53:26;2.85;;;2.65;;
41436;SDS011;27178;49.460;10.850;2024-03-29T11:55:54;3.03;;;2.80;;
41436;SDS011;27178;49.460;10.850;2024-03-29T11:58:22;2.78;;;2.38;;
41436;SDS011;27178;49.460;10.850;2024-03-29T12:00:51;3.33;;;2.28;;
41436;SDS011;27178;49.460;10.850;2024-03-29T12:03:21;2.33;;;2.00;;
41436;SDS011;27178;49.460;10.850;2024-03-29T12:05:49;2.35;;;2.10;;
41436;SDS011;27178;49.460;10.850;2024-03-29T12:08:19;2.20;;;2.00;;
41436;SDS011;27178;49.460;10.850;2024-03-29T12:10:48;2.65;;;2.15;;
41436;SDS011;27178;49.460;10.850;2024-03-29T12:13:16;2.60;;;2.33;;
41436;SDS011;27178;49.460;10.850;2024-03-29T12:15:44;2.63;;;2.42;;
41436;SDS011;27178;49.460;10.850;2024-03-29T12:18:12;2.50;;;2.30;;
41436;SDS011;27178;49.460;10.850;2024-03-29T12:20:41;2.67;;;2.47;;
41436;SDS011;27178;49.460;10.850;2024-03-29T12:23:12;2.53;;;2.33;;
41436;SDS011;27178;49.460;10.850;2024-03-29T12:25:39;2.75;;;2.40;;
41436;SDS011;27178;49.460;10.850;2024-03-29T12:28:08;2.72;;;2.53;;
41436;SDS011;27178;49.460;10.850;2024-03-29T12:30:37;2.50;;;2.13;;
41436;SDS011;27178;49.460;10.850;2024-03-29T12:33:06;2.10;;;1.90;;
41436;SDS011;27178;49.460;10.850;2024-03-29T12:35:37;2.80;;;2.20;;
41436;SDS011;27178;49.460;10.850;2024-03-29T12:38:05;2.40;;;2.20;;
41436;SDS011;27178;49.460;10.850;2024-03-29T12:40:33;2.05;;;1.88;;
41436;SDS011;27178;49.460;10.850;2024-03-29T12:43:03;2.40;;;2.20;;
41436;SDS011;27178;49.460;10.850;2024-03-29T12:45:32;4.90;;;2.13;;
41436;SDS011;27178;49.460;10.850;2024-03-29T12:48:00;2.45;;;2.17;;
41436;SDS011;27178;49.460;10.850;2024-03-29T12:50:28;2.42;;;1.80;;
41436;SDS011;27178;49.460;10.850;2024-03-29T12:52:58;2.35;;;1.75;;
41436;SDS011;27178;49.460;10.850;2024-03-29T12:55:27;1.60;;;1.50;;
41436;SDS011;27178;49.460;10.850;2024-03-29T12:57:56;1.50;;;1.40;;
41436;SDS011;27178;49.460;10.850;2024-03-29T13:00:25;1.67;;;1.55;;
41436;SDS011;27178;49.460;10.850;2024-03-29T13:02:53;1.60;;;1.50;;
41436;SDS011;27178;49.460;10.850;2024-03-29T13:05:20;1.50;;;1.40;;
41436;SDS011;27178;49.460;10.850;2024-03-29T13:07:48;1.60;;;1.48;;
41436;SDS011;27178;49.460;10.850;2024-03-29T13:10:16;1.48;;;1.38;;
41436;SDS011;27178;49.460;10.850;2024-03-29T13:12:46;1.50;;;1.40;;
41436;SDS011;27178;49.460;10.850;2024-03-29T13:15:16;2.55;;;1.20;;
41436;SDS011;27178;49.460;10.850;2024-03-29T13:17:45;1.48;;;1.35;;
41436;SDS011;27178;49.460;10.850;2024-03-29T13:20:14;1.40;;;1.30;;
41436;SDS011;27178;49.460;10.850;2024-03-29T13:22:42;1.30;;;1.20;;
41436;SDS011;27178;49.460;10.850;2024-03-29T13:25:11;1.23;;;1.13;;
41436;SDS011;27178;49.460;10.850;2024-03-29T13:27:40;2.25;;;1.27;;
41436;SDS011;27178;49.460;10.850;2024-03-29T13:30:08;1.85;;;1.48;;
41436;SDS011;27178;49.460;10.850;2024-03-29T13:32:37;1.70;;;1.60;;
41436;SDS011;27178;49.460;10.850;2024-03-29T13:35:06;1.48;;;1.38;;
41436;SDS011;27178;49.460;10.850;2024-03-29T13:37:37;1.50;;;1.40;;
41436;SDS011;27178;49.460;10.850;2024-03-29T13:40:05;1.70;;;1.60;;
41436;SDS011;27178;49.460;10.850;2024-03-29T13:42:34;1.27;;;1.20;;
41436;SDS011;27178;49.460;10.850;2024-03-29T13:45:03;1.63;;;1.48;;
41436;SDS011;27178;49.460;10.850;2024-03-29T13:47:31;1.60;;;1.50;;
41436;SDS011;27178;49.460;10.850;2024-03-29T13:50:00;1.50;;;1.40;;
41436;SDS011;27178;49.460;10.850;2024-03-29T13:52:27;1.60;;;1.30;;
41436;SDS011;27178;49.460;10.850;2024-03-29T13:54:54;3.88;;;1.50;;
41436;SDS011;27178;49.460;10.850;2024-03-29T13:57:21;1.20;;;1.10;;
41436;SDS011;27178;49.460;10.850;2024-03-29T13:59:49;1.50;;;1.40;;
41436;SDS011;27178;49.460;10.850;2024-03-29T14:02:18;1.20;;;1.10;;
41436;SDS011;27178;49.460;10.850;2024-03-29T14:04:46;1.00;;;1.00;;
41436;SDS011;27178;49.460;10.850;2024-03-29T14:07:15;1.10;;;1.00;;
41436;SDS011;27178;49.460;10.850;2024-03-29T14:09:43;1.80;;;1.10;;
41436;SDS011;27178;49.460;10.850;2024-03-29T14:12:11;1.42;;;1.33;;
41436;SDS011;27178;49.460;10.850;2024-03-29T14:14:39;0.98;;;0.98;;
41436;SDS011;27178;49.460;10.850;2024-03-29T14:17:07;1.08;;;0.98;;
41436;SDS011;27178;49.460;10.850;2024-03-29T14:19:36;0.73;;;0.73;;
41436;SDS011;27178;49.460;10.850;2024-03-29T14:22:03;0.88;;;0.82;;
41436;SDS011;27178;49.460;10.850;2024-03-29T14:24:31;1.45;;;1.15;;
41436;SDS011;27178;49.460;10.850;2024-03-29T14:27:01;0.98;;;0.98;;
41436;SDS011;27178;49.460;10.850;2024-03-29T14:29:30;0.95;;;0.90;;
41436;SDS011;27178;49.460;10.850;2024-03-29T14:31:58;0.93;;;0.82;;
41436;SDS011;27178;49.460;10.850;2024-03-29T14:34:26;0.82;;;0.68;;
41436;SDS011;27178;49.460;10.850;2024-03-29T14:36:58;1.30;;;1.20;;
41436;SDS011;27178;49.460;10.850;2024-03-29T14:39:25;0.90;;;0.70;;